createdAt,value
2019-03-04T00:02:20.570Z,74.33
2019-03-04T00:04:49.699Z,74.31
2019-03-04T00:07:18.771Z,74.26
2019-03-04T00:09:52.784Z,74.58
2019-03-04T00:12:21.904Z,73.12
2019-03-04T00:14:50.990Z,73.43
2019-03-04T00:17:20.180Z,73.82
2019-03-04T00:19:52.280Z,73.75
2019-03-04T00:22:21.428Z,73.68
2019-03-04T00:24:50.891Z,73.45
2019-03-04T00:27:20.338Z,73.71
2019-03-04T00:29:49.498Z,74.06
2019-03-04T00:32:18.606Z,73.20
2019-03-04T00:34:47.714Z,73.15
2019-03-04T00:37:16.889Z,73.12
2019-03-04T00:39:45.940Z,73.05
2019-03-04T00:42:15.075Z,73.10
2019-03-04T00:44:44.240Z,72.89
2019-03-04T00:47:13.337Z,72.69
2019-03-04T00:49:42.515Z,73.14
2019-03-04T00:52:11.766Z,72.32
2019-03-04T00:54:40.814Z,72.98
2019-03-04T00:57:09.958Z,72.71
2019-03-04T00:59:39.070Z,72.33
2019-03-04T01:02:08.229Z,72.48
2019-03-04T01:04:37.293Z,72.43
2019-03-04T01:07:06.525Z,72.52
2019-03-04T01:09:35.546Z,72.31
2019-03-04T01:12:04.680Z,72.57
2019-03-04T01:14:36.779Z,73.38
2019-03-04T01:17:05.856Z,71.99
2019-03-04T01:19:37.929Z,73.25
2019-03-04T01:22:06.988Z,73.05
2019-03-04T01:24:36.098Z,72.59
2019-03-04T01:27:05.169Z,72.31
2019-03-04T01:29:34.258Z,71.72
2019-03-04T01:32:03.335Z,72.08
2019-03-04T01:34:32.413Z,72.10
2019-03-04T01:37:01.512Z,71.97
2019-03-04T01:39:30.621Z,71.73
2019-03-04T01:42:00.246Z,71.48
2019-03-04T01:44:29.312Z,72.20
2019-03-04T01:47:01.277Z,71.11
2019-03-04T01:49:30.283Z,71.58
2019-03-04T01:51:59.431Z,71.29
2019-03-04T01:54:28.693Z,71.63
2019-03-04T01:56:57.754Z,71.84
2019-03-04T01:59:30.108Z,72.25
2019-03-04T02:01:59.241Z,72.17
2019-03-04T02:04:28.414Z,73.77
2019-03-04T02:06:57.541Z,74.21
2019-03-04T02:09:26.658Z,75.18
2019-03-04T02:11:55.785Z,75.08
2019-03-04T02:14:24.854Z,77.26
2019-03-04T02:16:55.199Z,77.47
2019-03-04T02:19:24.328Z,79.33
2019-03-04T02:21:53.459Z,78.80
2019-03-04T02:24:24.749Z,78.50
2019-03-04T02:26:55.382Z,77.36
2019-03-04T02:29:24.532Z,77.17
2019-03-04T02:31:53.673Z,77.05
2019-03-04T02:34:22.802Z,76.73
2019-03-04T02:36:52.767Z,76.79
2019-03-04T02:39:21.984Z,75.69
2019-03-04T02:41:51.079Z,75.56
2019-03-04T02:44:20.975Z,75.04
2019-03-04T02:46:50.163Z,74.28
2019-03-04T02:49:19.234Z,74.32
2019-03-04T02:51:48.432Z,73.96
2019-03-04T02:54:17.560Z,73.63
2019-03-04T02:56:49.370Z,73.05
2019-03-04T02:59:18.423Z,72.30
2019-03-04T03:01:47.490Z,71.95
2019-03-04T03:04:16.665Z,71.50
2019-03-04T03:06:48.424Z,71.42
2019-03-04T03:09:17.548Z,71.06
2019-03-04T03:11:46.745Z,71.02
2019-03-04T03:14:15.812Z,70.69
2019-03-04T03:16:44.875Z,70.47
2019-03-04T03:19:13.968Z,70.47
2019-03-04T03:21:43.114Z,70.39
2019-03-04T03:24:12.288Z,68.88
2019-03-04T03:26:41.400Z,68.92
2019-03-04T03:29:10.455Z,68.41
2019-03-04T03:31:39.641Z,68.38
2019-03-04T03:34:08.739Z,68.49
2019-03-04T03:36:37.909Z,68.06
2019-03-04T03:39:07.097Z,68.30
2019-03-04T03:41:36.306Z,68.50
2019-03-04T03:44:05.548Z,67.63
2019-03-04T03:46:34.556Z,67.85
2019-03-04T03:49:03.735Z,68.41
2019-03-04T03:51:32.778Z,67.46
2019-03-04T03:54:01.880Z,67.29
2019-03-04T03:56:31.050Z,66.22
2019-03-04T03:59:00.154Z,66.61
2019-03-04T04:01:29.587Z,66.24
2019-03-04T04:04:01.000Z,66.28
2019-03-04T04:06:30.119Z,66.50
2019-03-04T04:08:59.204Z,66.70
2019-03-04T04:11:28.334Z,66.67
2019-03-04T04:13:57.461Z,66.65
2019-03-04T04:16:26.517Z,66.30
2019-03-04T04:18:55.656Z,65.77
2019-03-04T04:21:24.753Z,65.53
2019-03-04T04:23:53.863Z,65.51
2019-03-04T04:26:23.103Z,65.96
2019-03-04T04:29:11.605Z,65.79
2019-03-04T04:31:40.768Z,64.94
2019-03-04T04:34:09.841Z,64.81
2019-03-04T04:36:41.751Z,64.27
2019-03-04T04:39:13.519Z,64.62
2019-03-04T04:41:43.439Z,63.87
2019-03-04T04:44:12.580Z,63.55
2019-03-04T04:46:55.502Z,62.56
2019-03-04T04:49:26.452Z,63.49
2019-03-04T04:51:55.447Z,62.43
2019-03-04T04:54:24.632Z,62.38
2019-03-04T04:56:53.670Z,61.92
2019-03-04T04:59:25.406Z,62.34
2019-03-04T05:01:57.203Z,61.52
2019-03-04T05:04:26.340Z,60.80
2019-03-04T05:06:55.401Z,61.82
2019-03-04T05:09:24.485Z,61.40
2019-03-04T05:11:53.579Z,61.45
2019-03-04T05:14:22.670Z,61.12
2019-03-04T05:16:51.798Z,61.67
2019-03-04T05:19:20.953Z,61.78
2019-03-04T05:21:50.156Z,61.87
2019-03-04T05:24:19.312Z,62.28
2019-03-04T05:26:48.349Z,62.60
2019-03-04T05:29:17.552Z,63.10
2019-03-04T05:31:46.628Z,63.18
2019-03-04T05:34:15.681Z,63.31
2019-03-04T05:36:44.717Z,63.33
2019-03-04T05:39:13.858Z,63.20
2019-03-04T05:41:42.829Z,63.34
2019-03-04T05:44:11.966Z,64.04
2019-03-04T05:46:40.938Z,64.79
2019-03-04T05:49:10.012Z,64.52
2019-03-04T05:51:39.086Z,63.00
2019-03-04T05:54:08.196Z,61.40
2019-03-04T05:56:37.326Z,61.56
2019-03-04T05:59:06.361Z,62.96
2019-03-04T06:01:37.492Z,64.39
2019-03-04T06:04:08.375Z,66.19
2019-03-04T06:06:59.706Z,67.21
2019-03-04T06:09:28.833Z,69.12
2019-03-04T06:11:57.977Z,69.89
2019-03-04T06:14:26.994Z,70.75
2019-03-04T06:16:56.102Z,72.07
2019-03-04T06:19:25.228Z,72.62
2019-03-04T06:21:54.269Z,76.15
2019-03-04T06:24:23.305Z,77.12
2019-03-04T06:26:52.362Z,77.89
2019-03-04T06:29:21.444Z,80.29
2019-03-04T06:31:50.529Z,80.26
2019-03-04T06:34:19.623Z,81.67
2019-03-04T06:36:48.784Z,83.38
2019-03-04T06:39:17.840Z,83.25
2019-03-04T06:41:46.758Z,81.76
2019-03-04T06:44:15.645Z,83.66
2019-03-04T06:46:44.570Z,83.30
2019-03-04T06:49:13.481Z,83.38
2019-03-04T06:51:49.754Z,83.34
2019-03-04T06:55:19.087Z,83.45
2019-03-04T06:57:50.616Z,83.10
2019-03-04T07:00:56.544Z,83.66
2019-03-04T07:03:30.783Z,82.57
2019-03-04T07:05:59.904Z,82.14
2019-03-04T07:09:11.574Z,81.99
2019-03-04T07:11:42.067Z,81.80
2019-03-04T07:14:11.060Z,81.50
2019-03-04T07:16:40.105Z,80.28
2019-03-04T07:19:13.746Z,79.94
2019-03-04T07:21:42.749Z,80.06
2019-03-04T07:24:11.845Z,79.67
2019-03-04T07:26:43.515Z,78.65
2019-03-04T07:29:14.930Z,77.09
2019-03-04T07:31:41.640Z,76.96
2019-03-04T07:34:10.644Z,77.18
2019-03-04T07:36:39.734Z,76.51
2019-03-04T07:39:16.044Z,76.32
2019-03-04T07:41:49.433Z,76.02
2019-03-04T07:44:18.657Z,76.42
2019-03-04T07:46:47.779Z,76.10
2019-03-04T07:49:16.874Z,75.79
2019-03-04T07:51:46.045Z,75.67
2019-03-04T07:54:15.641Z,75.30
2019-03-04T07:56:44.751Z,75.43
2019-03-04T07:59:13.909Z,75.81
2019-03-04T08:01:49.114Z,74.48
2019-03-04T08:04:18.241Z,73.77
2019-03-04T08:06:47.381Z,73.28
2019-03-04T08:10:04.377Z,73.98
2019-03-04T08:12:56.204Z,74.26
2019-03-04T08:15:26.641Z,74.21
2019-03-04T08:17:58.748Z,76.47
2019-03-04T08:20:28.174Z,76.34
2019-03-04T08:22:57.363Z,77.40
2019-03-04T08:25:26.466Z,77.84
2019-03-04T08:27:58.971Z,78.07
2019-03-04T08:30:28.149Z,79.23
2019-03-04T08:33:00.206Z,80.21
2019-03-04T08:35:29.502Z,79.70
2019-03-04T08:37:58.702Z,80.37
2019-03-04T08:40:27.912Z,81.08
2019-03-04T08:42:57.174Z,80.88
2019-03-04T08:45:26.560Z,81.27
2019-03-04T08:47:55.688Z,81.82
2019-03-04T08:50:24.829Z,82.28
2019-03-04T08:52:54.017Z,82.30
2019-03-04T08:55:24.010Z,81.00
2019-03-04T08:57:53.103Z,81.39
2019-03-04T09:00:24.571Z,82.16
2019-03-04T09:02:53.603Z,83.12
2019-03-04T09:05:22.705Z,84.07
2019-03-04T09:07:51.868Z,83.77
2019-03-04T09:10:23.389Z,84.33
2019-03-04T09:12:54.985Z,85.17
2019-03-04T09:15:24.255Z,84.44
2019-03-04T09:17:53.401Z,84.25
2019-03-04T09:20:23.070Z,84.07
2019-03-04T09:22:52.228Z,84.06
2019-03-04T09:25:35.938Z,83.55
2019-03-04T09:28:05.895Z,83.36
2019-03-04T09:30:34.981Z,83.52
2019-03-04T09:33:04.136Z,83.52
2019-03-04T09:35:33.155Z,83.59
2019-03-04T09:38:05.087Z,82.58
2019-03-04T09:40:34.242Z,82.21
2019-03-04T09:43:03.381Z,80.53
2019-03-04T09:45:38.965Z,81.22
2019-03-04T09:48:01.505Z,81.63
2019-03-04T09:50:30.608Z,80.82
2019-03-04T09:53:02.667Z,80.02
2019-03-04T09:55:34.551Z,79.79
2019-03-04T09:58:00.979Z,79.25
2019-03-04T10:01:16.840Z,79.42
2019-03-04T10:03:54.815Z,78.66
2019-03-04T10:07:23.584Z,78.50
2019-03-04T10:10:30.029Z,78.47
2019-03-04T10:13:55.942Z,79.05
2019-03-04T10:16:54.181Z,78.98
2019-03-04T10:20:04.281Z,79.29
2019-03-04T10:22:56.269Z,78.86
2019-03-04T10:26:22.865Z,78.29
2019-03-04T10:28:54.855Z,78.33
2019-03-04T10:31:59.513Z,78.46
2019-03-04T10:35:27.472Z,77.54
2019-03-04T10:38:44.311Z,75.43
2019-03-04T10:42:08.186Z,71.01
2019-03-04T10:45:19.662Z,70.40
2019-03-04T10:47:53.693Z,71.02
2019-03-04T10:50:44.781Z,71.83
2019-03-04T10:53:24.432Z,73.29
2019-03-04T10:55:42.255Z,73.28
2019-03-04T10:58:08.233Z,74.22
2019-03-04T11:00:37.898Z,74.74
2019-03-04T11:03:09.891Z,75.53
2019-03-04T11:05:39.073Z,74.62
2019-03-04T11:08:08.286Z,74.78
2019-03-04T11:10:37.438Z,74.26
2019-03-04T11:13:06.536Z,75.01
2019-03-04T11:15:38.547Z,74.56
2019-03-04T11:18:07.693Z,73.79
2019-03-04T11:20:37.171Z,74.41
2019-03-04T11:23:06.400Z,74.53
2019-03-04T11:25:35.635Z,73.76
2019-03-04T11:28:04.884Z,72.14
2019-03-04T11:30:36.922Z,71.00
2019-03-04T11:33:06.123Z,66.42
2019-03-04T11:35:35.195Z,64.37
2019-03-04T11:38:07.234Z,63.13
2019-03-04T11:40:38.721Z,61.76
2019-03-04T11:43:07.862Z,58.78
2019-03-04T11:45:37.443Z,61.08
2019-03-04T11:48:06.777Z,61.79
2019-03-04T11:50:35.897Z,63.83
2019-03-04T11:53:07.452Z,64.00
2019-03-04T11:55:36.693Z,64.52
2019-03-04T11:58:06.274Z,62.94
2019-03-04T12:00:59.242Z,64.81
2019-03-04T12:03:25.268Z,66.14
2019-03-04T12:05:54.638Z,66.78
2019-03-04T12:08:23.804Z,67.06
2019-03-04T12:10:53.240Z,66.79
2019-03-04T12:13:24.427Z,67.10
2019-03-04T12:15:54.090Z,66.21
2019-03-04T12:18:26.083Z,65.45
2019-03-04T12:20:57.303Z,66.07
2019-03-04T12:23:24.013Z,66.01
2019-03-04T12:25:53.470Z,65.90
2019-03-04T12:28:23.683Z,66.01
2019-03-04T12:30:58.395Z,64.70
2019-03-04T12:33:32.480Z,63.65
2019-03-04T12:36:00.594Z,63.12
2019-03-04T12:38:30.082Z,62.13
2019-03-04T12:41:01.998Z,62.44
2019-03-04T12:43:29.068Z,60.97
2019-03-04T12:46:01.482Z,61.63
2019-03-04T12:48:34.248Z,61.13
2019-03-04T12:51:04.504Z,61.24
2019-03-04T12:53:37.259Z,60.39
2019-03-04T12:56:05.198Z,59.77
2019-03-04T12:58:32.271Z,58.57
2019-03-04T13:01:01.403Z,58.39
2019-03-04T13:03:30.494Z,58.29
2019-03-04T13:05:59.682Z,58.71
2019-03-04T13:08:28.809Z,58.01
2019-03-04T13:11:00.877Z,58.49
2019-03-04T13:13:29.972Z,58.78
2019-03-04T13:16:01.917Z,58.04
2019-03-04T13:18:30.983Z,57.65
2019-03-04T13:21:00.103Z,58.56
2019-03-04T13:23:29.202Z,58.06
2019-03-04T13:25:58.345Z,58.47
2019-03-04T13:28:30.431Z,59.43
2019-03-04T13:30:59.564Z,57.70
2019-03-04T13:33:28.667Z,57.17
2019-03-04T13:35:57.767Z,58.14
2019-03-04T13:38:26.886Z,58.51
2019-03-04T13:40:56.061Z,57.88
2019-03-04T13:43:28.075Z,58.06
2019-03-04T13:45:57.996Z,58.26
2019-03-04T13:48:28.638Z,57.11
2019-03-04T13:50:57.802Z,57.31
2019-03-04T13:53:26.986Z,57.33
2019-03-04T13:55:56.120Z,58.18
2019-03-04T13:58:25.429Z,57.00
2019-03-04T14:00:54.619Z,55.32
2019-03-04T14:03:23.668Z,55.19
2019-03-04T14:05:52.801Z,55.55
2019-03-04T14:08:21.999Z,55.06
2019-03-04T14:10:54.180Z,54.56
2019-03-04T14:13:23.294Z,54.64
2019-03-04T14:15:52.414Z,54.94
2019-03-04T14:18:21.544Z,54.37
2019-03-04T14:20:50.734Z,54.70
2019-03-04T14:23:21.475Z,54.57
2019-03-04T14:25:51.454Z,54.17
2019-03-04T14:28:28.279Z,54.38
2019-03-04T14:30:55.487Z,53.51
2019-03-04T14:33:24.583Z,52.75
2019-03-04T14:35:56.676Z,53.87
2019-03-04T14:38:25.718Z,53.58
2019-03-04T14:40:54.786Z,54.62
2019-03-04T14:43:23.844Z,55.35
2019-03-04T14:45:54.394Z,54.99
2019-03-04T14:48:22.223Z,51.70
2019-03-04T14:50:51.262Z,53.17
2019-03-04T14:53:20.391Z,52.06
2019-03-04T14:55:49.491Z,51.91
2019-03-04T14:58:20.031Z,52.94
2019-03-04T15:00:49.432Z,53.30
2019-03-04T15:03:23.060Z,53.36
2019-03-04T15:05:47.847Z,54.19
2019-03-04T15:08:16.921Z,53.94
2019-03-04T15:10:46.100Z,53.45
2019-03-04T15:13:15.158Z,53.99
2019-03-04T15:15:44.291Z,53.14
2019-03-04T15:18:13.608Z,53.42
2019-03-04T15:20:42.683Z,53.92
2019-03-04T15:23:11.777Z,54.86
2019-03-04T15:25:44.182Z,55.07
2019-03-04T15:28:15.376Z,55.92
2019-03-04T15:30:45.501Z,56.83
2019-03-04T15:33:18.529Z,57.33
2019-03-04T15:35:44.271Z,57.10
2019-03-04T15:38:13.452Z,57.31
2019-03-04T15:40:42.655Z,57.42
2019-03-04T15:43:11.892Z,57.64
2019-03-04T15:45:43.456Z,57.77
2019-03-04T15:48:12.644Z,58.12
2019-03-04T15:50:41.868Z,58.04
2019-03-04T15:53:10.951Z,57.84
2019-03-04T15:55:39.975Z,59.04
2019-03-04T15:58:09.183Z,59.14
2019-03-04T16:00:38.249Z,59.41
2019-03-04T16:03:07.387Z,59.69
2019-03-04T16:05:36.437Z,60.17
2019-03-04T16:08:07.849Z,59.34
2019-03-04T16:10:35.030Z,59.96
2019-03-04T16:13:04.201Z,60.08
2019-03-04T16:15:38.199Z,60.20
2019-03-04T16:18:07.430Z,60.75
2019-03-04T16:20:36.579Z,61.03
2019-03-04T16:23:05.790Z,61.46
2019-03-04T16:25:34.843Z,61.40
2019-03-04T16:28:09.970Z,60.17
2019-03-04T16:30:39.223Z,61.08
2019-03-04T16:33:08.389Z,61.10
2019-03-04T16:35:37.564Z,61.28
2019-03-04T16:38:06.657Z,61.70
2019-03-04T16:40:35.780Z,61.86
2019-03-04T16:43:04.863Z,62.04
2019-03-04T16:45:33.978Z,62.50
2019-03-04T16:48:03.122Z,62.63
2019-03-04T16:50:32.576Z,62.77
2019-03-04T16:53:02.096Z,62.51
2019-03-04T16:55:31.192Z,62.77
2019-03-04T16:58:00.394Z,63.30
2019-03-04T17:00:29.432Z,63.02
2019-03-04T17:02:58.566Z,63.12
2019-03-04T17:05:27.620Z,63.35
2019-03-04T17:07:56.748Z,63.51
2019-03-04T17:10:25.838Z,63.39
2019-03-04T17:12:54.984Z,63.76
2019-03-04T17:15:24.096Z,63.87
2019-03-04T17:17:53.234Z,63.97
2019-03-04T17:20:25.428Z,64.22
2019-03-04T17:22:54.569Z,64.51
2019-03-04T17:25:23.624Z,64.36
2019-03-04T17:27:52.739Z,64.19
2019-03-04T17:30:21.873Z,64.14
2019-03-04T17:32:50.903Z,63.78
2019-03-04T17:35:20.051Z,64.35
2019-03-04T17:37:49.261Z,64.69
2019-03-04T17:40:18.355Z,65.00
2019-03-04T17:42:47.488Z,65.32
2019-03-04T17:45:18.151Z,65.29
2019-03-04T17:47:50.320Z,65.29
2019-03-04T17:50:28.109Z,65.62
2019-03-04T17:52:57.240Z,65.84
2019-03-04T17:55:26.401Z,65.71
2019-03-04T17:57:55.509Z,66.52
2019-03-04T18:00:24.614Z,66.21
2019-03-04T18:02:57.069Z,65.89
2019-03-04T18:05:26.230Z,66.18
2019-03-04T18:07:58.120Z,66.46
2019-03-04T18:10:27.336Z,66.68
2019-03-04T18:12:56.571Z,66.97
2019-03-04T18:15:26.604Z,67.18
2019-03-04T18:17:55.765Z,67.24
2019-03-04T18:20:34.093Z,67.05
2019-03-04T18:22:54.090Z,67.37
2019-03-04T18:25:36.559Z,67.49
2019-03-04T18:28:09.987Z,67.91
2019-03-04T18:30:46.009Z,67.83
2019-03-04T18:33:54.713Z,67.72
2019-03-04T18:36:42.741Z,68.05
2019-03-04T18:39:37.914Z,68.58
2019-03-04T18:42:34.004Z,68.61
2019-03-04T18:45:39.605Z,68.17
2019-03-04T18:48:54.462Z,68.70
2019-03-04T18:51:23.648Z,69.04
2019-03-04T18:53:54.586Z,69.12
2019-03-04T18:56:23.851Z,69.29
2019-03-04T18:58:52.895Z,69.09
2019-03-04T19:01:22.059Z,69.14
2019-03-04T19:03:51.291Z,68.87
2019-03-04T19:06:20.451Z,68.65
2019-03-04T19:08:49.661Z,68.92
2019-03-04T19:11:18.758Z,68.87
2019-03-04T19:13:51.133Z,68.89
2019-03-04T19:16:21.864Z,69.74
2019-03-04T19:18:51.063Z,69.93
2019-03-04T19:21:20.274Z,70.29
2019-03-04T19:23:51.607Z,70.76
2019-03-04T19:26:20.707Z,70.66
2019-03-04T19:28:49.914Z,70.62
2019-03-04T19:31:19.052Z,70.96
2019-03-04T19:33:48.158Z,70.18
2019-03-04T19:36:17.284Z,71.14
2019-03-04T19:38:46.425Z,70.95
2019-03-04T19:41:15.610Z,70.62
2019-03-04T19:43:44.759Z,69.89
2019-03-04T19:46:14.025Z,69.89
2019-03-04T19:48:43.150Z,69.99
2019-03-04T19:51:13.727Z,70.15
2019-03-04T19:53:41.706Z,70.00
2019-03-04T19:56:10.828Z,69.86
2019-03-04T19:58:39.926Z,69.70
2019-03-04T20:01:09.065Z,69.44
2019-03-04T20:03:38.118Z,70.00
2019-03-04T20:06:07.277Z,69.49
2019-03-04T20:08:36.424Z,69.91
2019-03-04T20:11:05.581Z,69.79
2019-03-04T20:13:34.771Z,69.54
2019-03-04T20:16:04.899Z,69.66
2019-03-04T20:18:34.037Z,70.41
2019-03-04T20:21:03.227Z,69.62
2019-03-04T20:23:32.422Z,69.68
2019-03-04T20:26:01.565Z,69.68
2019-03-04T20:28:30.689Z,70.28
2019-03-04T20:30:59.871Z,70.76
2019-03-04T20:33:29.099Z,70.81
2019-03-04T20:35:58.300Z,70.44
2019-03-04T20:38:33.662Z,70.38
2019-03-04T20:41:02.871Z,70.07
2019-03-04T20:43:32.435Z,71.25
2019-03-04T20:46:01.639Z,70.90
2019-03-04T20:48:30.645Z,70.85
2019-03-04T20:51:00.132Z,71.22
2019-03-04T20:53:31.695Z,71.87
2019-03-04T20:56:00.950Z,72.34
2019-03-04T20:58:30.285Z,73.46
2019-03-04T21:01:02.833Z,74.71
2019-03-04T21:03:35.106Z,76.42
2019-03-04T21:06:01.316Z,77.15
2019-03-04T21:08:30.677Z,78.32
2019-03-04T21:10:59.832Z,78.86
2019-03-04T21:13:51.829Z,78.75
2019-03-04T21:16:23.806Z,79.70
2019-03-04T21:18:53.053Z,80.18
2019-03-04T21:21:22.316Z,80.05
2019-03-04T21:23:51.562Z,80.00
2019-03-04T21:26:26.564Z,80.54
2019-03-04T21:29:30.094Z,79.84
2019-03-04T21:32:06.586Z,79.76
2019-03-04T21:35:12.285Z,80.67
2019-03-04T21:37:44.199Z,79.93
2019-03-04T21:40:20.000Z,80.77
2019-03-04T21:43:02.296Z,81.07
2019-03-04T21:46:01.304Z,80.76
2019-03-04T21:48:41.373Z,80.63
2019-03-04T21:51:25.436Z,81.53
2019-03-04T21:53:54.694Z,81.13
2019-03-04T21:56:47.082Z,81.16
2019-03-04T21:59:16.250Z,81.69
2019-03-04T22:01:55.984Z,81.70
2019-03-04T22:04:25.109Z,81.61
2019-03-04T22:06:54.375Z,82.25
2019-03-04T22:09:23.562Z,82.51
2019-03-04T22:11:52.642Z,82.72
2019-03-04T22:14:21.707Z,82.43
2019-03-04T22:16:50.944Z,81.82
2019-03-04T22:19:20.012Z,82.78
2019-03-04T22:21:49.354Z,83.19
2019-03-04T22:24:18.416Z,83.20
2019-03-04T22:26:47.666Z,82.86
2019-03-04T22:29:16.635Z,82.95
2019-03-04T22:31:46.110Z,82.78
2019-03-04T22:34:15.318Z,82.19
2019-03-04T22:36:44.549Z,81.63
2019-03-04T22:39:13.736Z,81.69
2019-03-04T22:41:42.946Z,81.41
2019-03-04T22:44:12.089Z,80.99
2019-03-04T22:46:41.342Z,80.67
2019-03-04T22:49:10.432Z,80.65
2019-03-04T22:51:39.752Z,80.37
2019-03-04T22:54:08.769Z,80.12
2019-03-04T22:56:37.967Z,79.87
2019-03-04T22:59:07.069Z,79.68
2019-03-04T23:01:45.621Z,78.10
2019-03-04T23:04:35.646Z,78.45
2019-03-04T23:07:28.480Z,78.60
2019-03-04T23:10:15.531Z,78.57
2019-03-04T23:12:55.813Z,78.39
2019-03-04T23:15:25.292Z,78.45
2019-03-04T23:17:54.533Z,78.35
2019-03-04T23:20:23.808Z,78.21
2019-03-04T23:22:52.942Z,77.83
2019-03-04T23:25:21.878Z,77.30
2019-03-04T23:28:33.734Z,77.03
2019-03-04T23:31:02.767Z,77.07
2019-03-04T23:33:31.655Z,77.29
2019-03-04T23:36:01.257Z,78.19
2019-03-04T23:38:30.378Z,77.41
2019-03-04T23:40:59.613Z,77.87
2019-03-04T23:43:28.775Z,77.68
2019-03-04T23:45:57.891Z,77.98
2019-03-04T23:48:26.869Z,78.16
2019-03-04T23:50:56.308Z,78.24
2019-03-04T23:53:25.441Z,78.04
2019-03-04T23:55:54.517Z,78.17
2019-03-04T23:58:23.633Z,78.31
